Time;durP1;ratioP1;P1;durP2;ratioP2;P2;SDS_P1;SDS_P2;PMS_P1;PMS_P2;Temp;Humidity;BMP_temperature;BMP_pressure;BME280_temperature;BME280_humidity;BME280_pressure;Samples;Min_cycle;Max_cycle;Signal;HPM_P1;HPM_P2
2023/06/26 00:07:26;;;;;;;;;;;29.10;33.80;;;;;;20921678;28;19975;-64
2023/06/26 00:17:26;;;;;;;;;;;29.10;34.10;;;;;;20921380;28;19931;-63
2023/06/26 00:27:27;;;;;;;;;;;28.90;34.60;;;;;;20920618;28;20330;-63
2023/06/26 00:37:28;;;;;;;;;;;28.80;35.10;;;;;;20920596;28;19928;-63
2023/06/26 00:47:28;;;;;;;;;;;28.60;35.50;;;;;;20918663;28;19929;-63
2023/06/26 00:57:30;;;;;;;;;;;28.40;35.90;;;;;;20918943;28;19925;-63
2023/06/26 01:07:36;;;;;;;;;;;28.30;36.40;;;;;;20918099;28;20285;-62
2023/06/26 01:17:37;;;;;;;;;;;28.20;36.70;;;;;;20917438;28;19924;-63
2023/06/26 01:27:38;;;;;;;;;;;28.10;36.90;;;;;;20914769;28;19929;-62
2023/06/26 01:37:39;;;;;;;;;;;28.00;37.40;;;;;;20914519;28;20424;-63
2023/06/26 01:47:44;;;;;;;;;;;27.80;37.70;;;;;;20915167;28;20397;-62
2023/06/26 01:57:46;;;;;;;;;;;27.70;37.90;;;;;;20913281;28;19925;-63
2023/06/26 02:07:46;;;;;;;;;;;27.60;38.70;;;;;;20914226;28;20290;-63
2023/06/26 02:17:48;;;;;;;;;;;27.10;39.60;;;;;;20912714;28;19929;-63
2023/06/26 02:27:48;;;;;;;;;;;26.90;40.10;;;;;;20912463;28;19925;-63
2023/06/26 02:37:49;;;;;;;;;;;26.90;40.50;;;;;;20913363;28;19947;-63
2023/06/26 02:47:49;;;;;;;;;;;26.80;40.40;;;;;;20926712;28;19925;-63
2023/06/26 02:57:50;;;;;;;;;;;26.70;40.50;;;;;;20927251;28;19929;-63
2023/06/26 03:07:51;;;;;;;;;;;26.70;40.40;;;;;;20927589;28;20370;-63
2023/06/26 03:17:51;;;;;;;;;;;27.00;39.80;;;;;;20927021;28;19924;-64
2023/06/26 03:27:52;;;;;;;;;;;27.00;40.00;;;;;;20924510;28;19925;-64
2023/06/26 03:37:52;;;;;;;;;;;26.70;40.80;;;;;;20923908;28;19968;-63
2023/06/26 03:47:53;;;;;;;;;;;26.60;41.10;;;;;;20922916;28;19976;-63
2023/06/26 03:57:54;;;;;;;;;;;26.50;41.10;;;;;;20923149;28;20453;-63
2023/06/26 04:07:54;;;;;;;;;;;26.30;41.30;;;;;;20923317;28;20033;-63
2023/06/26 04:17:55;;;;;;;;;;;26.30;41.70;;;;;;20922381;28;19968;-63
2023/06/26 04:27:55;;;;;;;;;;;26.10;42.00;;;;;;20920611;28;19975;-64
2023/06/26 04:37:56;;;;;;;;;;;26.00;42.90;;;;;;20920479;28;19925;-63
2023/06/26 04:47:57;;;;;;;;;;;25.80;43.50;;;;;;20918526;28;19932;-63
2023/06/26 04:57:58;;;;;;;;;;;25.60;44.40;;;;;;20917707;28;19924;-63
2023/06/26 05:08:12;;;;;;;;;;;25.20;45.50;;;;;;20916018;28;19932;-63
2023/06/26 05:18:13;;;;;;;;;;;25.00;46.00;;;;;;20917435;28;19974;-64
2023/06/26 05:28:15;;;;;;;;;;;25.00;46.10;;;;;;20917293;28;19925;-63
2023/06/26 05:38:15;;;;;;;;;;;25.00;46.10;;;;;;20916217;28;19960;-63
2023/06/26 05:48:16;;;;;;;;;;;25.00;46.40;;;;;;20915505;28;19925;-63
2023/06/26 05:58:17;;;;;;;;;;;25.10;46.40;;;;;;20914742;28;19929;-62
2023/06/26 06:08:18;;;;;;;;;;;25.30;46.50;;;;;;20914184;28;20007;-63
2023/06/26 06:18:19;;;;;;;;;;;25.50;46.20;;;;;;20913652;28;19960;-63
2023/06/26 06:28:19;;;;;;;;;;;25.70;45.70;;;;;;20912657;28;19999;-64
2023/06/26 06:38:20;;;;;;;;;;;25.70;45.50;;;;;;20912994;28;19925;-63
2023/06/26 06:48:21;;;;;;;;;;;26.00;44.90;;;;;;20910808;28;19932;-64
2023/06/26 06:58:22;;;;;;;;;;;26.20;44.60;;;;;;20910052;28;19925;-63
2023/06/26 07:08:23;;;;;;;;;;;26.90;43.20;;;;;;20911661;28;19947;-62
2023/06/26 07:18:23;;;;;;;;;;;27.70;41.70;;;;;;20911689;28;19929;-63
2023/06/26 07:28:24;;;;;;;;;;;28.50;39.50;;;;;;20914716;28;19929;-63
2023/06/26 07:38:25;;;;;;;;;;;29.00;39.20;;;;;;20924081;28;19929;-62
2023/06/26 07:48:26;;;;;;;;;;;29.60;37.70;;;;;;20923936;28;20397;-63
2023/06/26 07:58:26;;;;;;;;;;;29.90;37.00;;;;;;20923635;28;19967;-62
2023/06/26 08:08:27;;;;;;;;;;;30.10;36.70;;;;;;20921777;28;19929;-63
2023/06/26 08:18:27;;;;;;;;;;;30.60;36.10;;;;;;20921933;28;19932;-63
2023/06/26 08:28:28;;;;;;;;;;;31.00;35.20;;;;;;20920330;28;19929;-63
2023/06/26 08:38:29;;;;;;;;;;;31.30;34.00;;;;;;20917890;28;19925;-62
2023/06/26 08:48:31;;;;;;;;;;;31.50;33.30;;;;;;20919598;28;19979;-63
2023/06/26 08:58:32;;;;;;;;;;;31.90;31.60;;;;;;20918857;28;19972;-64
2023/06/26 09:08:33;;;;;;;;;;;32.10;31.90;;;;;;20917229;28;19925;-62
2023/06/26 09:18:33;;;;;;;;;;;32.30;31.20;;;;;;20917216;28;20394;-63
2023/06/26 09:28:35;;;;;;;;;;;32.20;31.60;;;;;;20915206;28;19976;-62
2023/06/26 09:38:35;;;;;;;;;;;32.40;31.00;;;;;;20916052;28;19929;-61
2023/06/26 09:48:36;;;;;;;;;;;32.60;31.00;;;;;;20915001;28;20302;-62
2023/06/26 09:58:37;;;;;;;;;;;32.30;31.10;;;;;;20915267;28;20019;-62
2023/06/26 10:08:39;;;;;;;;;;;32.50;30.90;;;;;;20914755;28;20066;-63
2023/06/26 10:18:40;;;;;;;;;;;32.70;30.60;;;;;;20914372;28;20011;-63
2023/06/26 10:28:43;;;;;;;;;;;32.80;30.20;;;;;;20912177;28;20005;-63
2023/06/26 10:38:55;;;;;;;;;;;33.10;29.80;;;;;;20913117;28;20301;-62
2023/06/26 10:48:59;;;;;;;;;;;33.20;29.20;;;;;;20912641;28;19967;-63
2023/06/26 10:59:11;;;;;;;;;;;33.50;28.40;;;;;;20910577;28;20021;-62
2023/06/26 11:09:13;;;;;;;;;;;33.60;28.70;;;;;;20924314;28;19925;-62
2023/06/26 11:19:14;;;;;;;;;;;33.90;28.10;;;;;;20925013;28;19983;-63
2023/06/26 11:29:15;;;;;;;;;;;33.70;28.70;;;;;;20924362;28;20286;-63
2023/06/26 11:39:15;;;;;;;;;;;34.00;28.30;;;;;;20925036;28;20004;-62
2023/06/26 11:49:16;;;;;;;;;;;34.10;27.90;;;;;;20922174;28;19932;-64
2023/06/26 11:59:17;;;;;;;;;;;34.20;28.30;;;;;;20922189;28;20459;-63
2023/06/26 12:09:18;;;;;;;;;;;34.10;28.10;;;;;;20921081;28;20393;-63
2023/06/26 12:19:23;;;;;;;;;;;34.20;27.90;;;;;;20920476;28;20401;-63
2023/06/26 12:29:33;;;;;;;;;;;34.50;28.20;;;;;;20920398;28;19928;-62
2023/06/26 12:39:49;;;;;;;;;;;34.80;27.70;;;;;;20919312;28;20402;-62
2023/06/26 12:49:51;;;;;;;;;;;34.70;27.60;;;;;;20919018;28;19932;-63
2023/06/26 12:59:51;;;;;;;;;;;34.70;27.70;;;;;;20917841;28;20011;-63
2023/06/26 13:09:52;;;;;;;;;;;35.10;27.60;;;;;;20915843;28;19963;-62
2023/06/26 13:19:53;;;;;;;;;;;35.20;27.00;;;;;;20917288;28;19931;-62
2023/06/26 13:29:53;;;;;;;;;;;35.20;26.70;;;;;;20914759;28;19975;-62
2023/06/26 13:39:54;;;;;;;;;;;35.50;27.20;;;;;;20915864;28;20377;-62
2023/06/26 13:49:54;;;;;;;;;;;35.30;26.60;;;;;;20915251;28;19924;-63
2023/06/26 13:59:56;;;;;;;;;;;35.60;25.10;;;;;;20914704;28;19947;-61
2023/06/26 14:09:57;;;;;;;;;;;35.70;22.80;;;;;;20913534;28;19925;-63
2023/06/26 14:19:58;;;;;;;;;;;36.30;22.80;;;;;;20913414;28;20428;-64
2023/06/26 14:29:58;;;;;;;;;;;36.30;23.50;;;;;;20912189;28;19929;-65
2023/06/26 14:39:59;;;;;;;;;;;36.60;23.50;;;;;;20922551;28;19936;-65
2023/06/26 14:50:00;;;;;;;;;;;36.60;23.40;;;;;;20927662;28;19925;-65
2023/06/26 15:00:00;;;;;;;;;;;36.60;22.80;;;;;;20928563;28;19931;-64
2023/06/26 15:10:01;;;;;;;;;;;36.80;22.40;;;;;;20926455;28;19925;-64
2023/06/26 15:20:02;;;;;;;;;;;37.10;21.20;;;;;;20927104;28;19947;-64
2023/06/26 15:30:02;;;;;;;;;;;36.90;20.60;;;;;;20924062;28;19925;-62
2023/06/26 15:40:03;;;;;;;;;;;36.90;21.50;;;;;;20925096;28;20440;-65
2023/06/26 15:50:04;;;;;;;;;;;37.10;20.90;;;;;;20922371;28;19932;-64
2023/06/26 16:00:05;;;;;;;;;;;36.80;21.00;;;;;;20922602;28;19925;-65
2023/06/26 16:10:07;;;;;;;;;;;36.90;20.40;;;;;;20920383;28;20414;-63
2023/06/26 16:20:08;;;;;;;;;;;36.90;19.20;;;;;;20920678;28;20397;-63
2023/06/26 16:30:09;;;;;;;;;;;37.00;17.60;;;;;;20921025;28;19929;-63
2023/06/26 16:40:10;;;;;;;;;;;37.00;15.50;;;;;;20917813;28;20352;-63
2023/06/26 16:50:10;;;;;;;;;;;37.00;14.70;;;;;;20918236;28;20067;-63
2023/06/26 17:00:11;;;;;;;;;;;36.90;14.60;;;;;;20917270;28;19944;-65
2023/06/26 17:10:12;;;;;;;;;;;36.90;15.20;;;;;;20916525;28;19925;-63
2023/06/26 17:20:12;;;;;;;;;;;36.80;18.60;;;;;;20916664;28;19925;-63
2023/06/26 17:30:22;;;;;;;;;;;36.60;19.40;;;;;;21236198;27;19916;-62
2023/06/26 17:40:23;;;;;;;;;;;36.60;19.50;;;;;;21236055;27;20353;-63
2023/06/26 17:50:24;;;;;;;;;;;36.60;19.00;;;;;;21236996;28;19928;-64
2023/06/26 18:00:24;;;;;;;;;;;36.40;18.40;;;;;;21235424;27;19927;-63
2023/06/26 18:10:25;;;;;;;;;;;36.10;18.80;;;;;;21233283;27;19923;-63
2023/06/26 18:20:26;;;;;;;;;;;35.80;18.50;;;;;;21233893;28;19924;-64
2023/06/26 18:30:26;;;;;;;;;;;35.50;20.40;;;;;;21197756;27;20007;-64
2023/06/26 18:40:27;;;;;;;;;;;35.40;19.80;;;;;;21098090;28;19967;-63
2023/06/26 18:50:28;;;;;;;;;;;35.20;19.70;;;;;;21089015;28;19959;-63
2023/06/26 19:00:30;;;;;;;;;;;35.10;19.30;;;;;;21089990;28;19924;-63
2023/06/26 19:10:31;;;;;;;;;;;35.00;19.50;;;;;;21087537;28;19924;-64
2023/06/26 19:20:31;;;;;;;;;;;34.90;19.50;;;;;;21085869;28;19924;-64
2023/06/26 19:30:32;;;;;;;;;;;34.70;20.20;;;;;;21086457;28;20369;-64
2023/06/26 19:40:34;;;;;;;;;;;34.50;20.90;;;;;;21084694;28;19963;-64
2023/06/26 19:50:35;;;;;;;;;;;34.20;20.30;;;;;;21082719;28;19981;-64
2023/06/26 20:00:37;;;;;;;;;;;34.10;20.90;;;;;;21083736;28;20030;-64
2023/06/26 20:10:38;;;;;;;;;;;33.70;21.40;;;;;;21082624;28;20395;-63
2023/06/26 20:20:39;;;;;;;;;;;33.50;21.90;;;;;;21081755;28;19928;-63
2023/06/26 20:30:41;;;;;;;;;;;33.40;22.20;;;;;;21082163;28;19975;-63
2023/06/26 20:40:42;;;;;;;;;;;33.20;22.50;;;;;;21081310;28;19924;-63
2023/06/26 20:50:43;;;;;;;;;;;33.10;24.40;;;;;;21080182;28;20024;-64
2023/06/26 21:00:43;;;;;;;;;;;32.90;25.10;;;;;;21079700;28;19928;-64
2023/06/26 21:10:44;;;;;;;;;;;32.60;26.20;;;;;;21077831;28;20264;-65
2023/06/26 21:20:45;;;;;;;;;;;32.60;26.80;;;;;;21078408;28;19978;-63
2023/06/26 21:30:45;;;;;;;;;;;32.40;27.20;;;;;;21078200;28;19970;-63
2023/06/26 21:40:46;;;;;;;;;;;32.20;28.10;;;;;;21077588;28;19963;-64
2023/06/26 21:50:47;;;;;;;;;;;32.10;29.80;;;;;;21078658;28;20388;-62
2023/06/26 22:00:48;;;;;;;;;;;31.80;29.30;;;;;;21078380;28;19924;-63
2023/06/26 22:10:48;;;;;;;;;;;31.70;27.00;;;;;;21083899;28;19930;-63
2023/06/26 22:20:49;;;;;;;;;;;31.50;27.90;;;;;;21092892;28;19985;-63
2023/06/26 22:30:50;;;;;;;;;;;31.40;29.90;;;;;;21091577;28;19924;-65
2023/06/26 22:40:50;;;;;;;;;;;31.10;31.70;;;;;;21092003;28;20022;-62
2023/06/26 22:50:51;;;;;;;;;;;30.90;33.50;;;;;;21091322;28;19950;-63
2023/06/26 23:00:53;;;;;;;;;;;30.60;34.60;;;;;;21089621;28;19924;-63
2023/06/26 23:10:54;;;;;;;;;;;30.50;35.50;;;;;;21090153;28;19959;-63
2023/06/26 23:20:54;;;;;;;;;;;30.30;36.40;;;;;;21088991;28;19936;-65
2023/06/26 23:30:57;;;;;;;;;;;30.30;36.60;;;;;;21088926;28;19920;-63
2023/06/26 23:40:58;;;;;;;;;;;30.10;37.30;;;;;;21087660;28;19978;-63
2023/06/26 23:50:58;;;;;;;;;;;30.10;37.60;;;;;;21086804;28;19924;-63
